
Distance (Route):
Temperature : 13.2°C
Humidity : 57.2%
Pressure : 0hPa| Receiver | Frames | First received | Last received |
|---|---|---|---|
| LZ4TU-5 | 188 | 2026-09-03 23:04:15 | 2026-09-04 00:48:06 |
| Receiver | Date | Latitude | Longitude | Direction | Speed | Altitude | Climb | Temperature | Humidity | Pressure | Voltage | Killtimer | Uptime | BKT | XDATA |
|---|---|---|---|---|---|---|---|---|---|---|---|---|---|---|---|
| LZ4TU-5 | 2026-09-04 00:48:06 | 44.47242 | 26.96383 | 61° | 4km/h | 1609m | -12.3m/s | 13.2°C | 57.2% | 0hPa | 0V | 08:20:00 | 00:00:00 | 00:00:00 | |
| LZ4TU-5 | 2026-09-04 00:48:02 | 44.47241 | 26.96373 | 85° | 9km/h | 1658m | -13.1m/s | 12.9°C | 56.1% | 0hPa | 0V | 08:20:00 | 00:00:00 | 00:00:00 | |
| LZ4TU-5 | 2026-09-04 00:47:57 | 44.47240 | 26.96357 | 82° | 7km/h | 1733m | -12.6m/s | 12.4°C | 59.0% | 0hPa | 0V | 08:20:00 | 00:00:00 | 00:00:00 | |
| LZ4TU-5 | 2026-09-04 00:47:53 | 44.47242 | 26.96345 | 98° | 11km/h | 1783m | -13.0m/s | 11.9°C | 60.8% | 0hPa | 0V | 08:20:00 | 00:00:00 | 00:00:00 | |
| LZ4TU-5 | 2026-09-04 00:47:47 | 44.47243 | 26.96330 | 116° | 7km/h | 1845m | -12.4m/s | 11.3°C | 63.9% | 0hPa | 0V | 08:20:00 | 00:00:00 | 00:00:00 | |
| LZ4TU-5 | 2026-09-04 00:47:42 | 44.47247 | 26.96314 | 107° | 11km/h | 1907m | -12.8m/s | 10.8°C | 67.1% | 0hPa | 0V | 08:20:00 | 00:00:00 | 00:00:00 | |
| LZ4TU-5 | 2026-09-04 00:47:37 | 44.47251 | 26.96293 | 106° | 9km/h | 1983m | -13.0m/s | 10.1°C | 69.8% | 0hPa | 0V | 08:20:00 | 00:00:00 | 00:00:00 | |
| LZ4TU-5 | 2026-09-04 00:47:32 | 44.47253 | 26.96278 | 94° | 11km/h | 2034m | -12.6m/s | 9.6°C | 71.5% | 0hPa | 0V | 08:20:00 | 00:00:00 | 00:00:00 | |
| LZ4TU-5 | 2026-09-04 00:47:28 | 44.47256 | 26.96260 | 107° | 9km/h | 2095m | -12.7m/s | 9.1°C | 73.2% | 0hPa | 0V | 08:20:00 | 00:00:00 | 00:00:00 | |
| LZ4TU-5 | 2026-09-04 00:47:23 | 44.47265 | 26.96242 | 135° | 13km/h | 2155m | -13.0m/s | 8.7°C | 75.3% | 0hPa | 0V | 08:20:00 | 00:00:00 | 00:00:00 | |
| LZ4TU-5 | 2026-09-04 00:47:18 | 44.47279 | 26.96222 | 139° | 13km/h | 2217m | -12.3m/s | 8.2°C | 76.9% | 0hPa | 0V | 08:20:00 | 00:00:00 | 00:00:00 | |
| LZ4TU-5 | 2026-09-04 00:47:14 | 44.47290 | 26.96206 | 139° | 15km/h | 2265m | -12.3m/s | 7.8°C | 78.2% | 0hPa | 0V | 08:20:00 | 00:00:00 | 00:00:00 | |
| LZ4TU-5 | 2026-09-04 00:47:09 | 44.47305 | 26.96193 | 148° | 16km/h | 2313m | -12.7m/s | 7.4°C | 78.1% | 0hPa | 0V | 08:20:00 | 00:00:00 | 00:00:00 | |
| LZ4TU-5 | 2026-09-04 00:47:05 | 44.47321 | 26.96180 | 149° | 18km/h | 2362m | -13.6m/s | 7.0°C | 77.0% | 0hPa | 0V | 08:20:00 | 00:00:00 | 00:00:00 | |
| LZ4TU-5 | 2026-09-04 00:47:00 | 44.47342 | 26.96167 | 164° | 18km/h | 2424m | -12.9m/s | 6.5°C | 80.1% | 0hPa | 0V | 08:20:00 | 00:00:00 | 00:00:00 | |
| LZ4TU-5 | 2026-09-04 00:46:55 | 44.47363 | 26.96154 | 150° | 20km/h | 2485m | -12.5m/s | 5.9°C | 84.7% | 0hPa | 0V | 08:20:00 | 00:00:00 | 00:00:00 | |
| LZ4TU-5 | 2026-09-04 00:46:51 | 44.47379 | 26.96141 | 145° | 20km/h | 2534m | -12.7m/s | 5.4°C | 88.0% | 0hPa | 0V | 08:20:00 | 00:00:00 | 00:00:00 | |
| LZ4TU-5 | 2026-09-04 00:46:46 | 44.47401 | 26.96125 | 161° | 20km/h | 2594m | -12.6m/s | 5.3°C | 69.0% | 0hPa | 0V | 08:21:00 | 00:00:00 | 00:00:00 | |
| LZ4TU-5 | 2026-09-04 00:46:41 | 44.47425 | 26.96110 | 152° | 22km/h | 2656m | -12.7m/s | 4.8°C | 67.3% | 0hPa | 0V | 08:21:00 | 00:00:00 | 00:00:00 | |
| LZ4TU-5 | 2026-09-04 00:46:37 | 44.47445 | 26.96096 | 151° | 22km/h | 2707m | -13.2m/s | 4.4°C | 68.5% | 0hPa | 0V | 08:21:00 | 00:00:00 | 00:00:00 | |
| LZ4TU-5 | 2026-09-04 00:46:32 | 44.47469 | 26.96080 | 152° | 22km/h | 2770m | -12.3m/s | 3.9°C | 69.3% | 0hPa | 0V | 08:21:00 | 00:00:00 | 00:00:00 | |
| LZ4TU-5 | 2026-09-04 00:46:29 | 44.47488 | 26.96068 | 164° | 16km/h | 2819m | -11.8m/s | 3.5°C | 67.0% | 0hPa | 0V | 08:21:00 | 00:00:00 | 00:00:00 | |
| LZ4TU-5 | 2026-09-04 00:46:24 | 44.47505 | 26.96058 | 166° | 16km/h | 2869m | -12.5m/s | 3.1°C | 66.5% | 0hPa | 0V | 08:21:00 | 00:00:00 | 00:00:00 | |
| LZ4TU-5 | 2026-09-04 00:46:19 | 44.47528 | 26.96048 | 160° | 16km/h | 2932m | -13.2m/s | 2.6°C | 73.9% | 0hPa | 0V | 08:21:00 | 00:00:00 | 00:00:00 | |
| LZ4TU-5 | 2026-09-04 00:46:14 | 44.47548 | 26.96040 | 175° | 16km/h | 2997m | -13.2m/s | 2.0°C | 76.5% | 0hPa | 0V | 08:21:00 | 00:00:00 | 00:00:00 | |
| LZ4TU-5 | 2026-09-04 00:46:09 | 44.47569 | 26.96032 | 155° | 16km/h | 3061m | -12.9m/s | 1.5°C | 78.9% | 0hPa | 0V | 08:21:00 | 00:00:00 | 00:00:00 | |
| LZ4TU-5 | 2026-09-04 00:46:00 | 44.47606 | 26.96010 | 155° | 16km/h | 3177m | -13.5m/s | 1.2°C | 70.0% | 0hPa | 0V | 08:21:00 | 00:00:00 | 00:00:00 | |
| LZ4TU-5 | 2026-09-04 00:45:55 | 44.47625 | 26.95996 | 163° | 16km/h | 3242m | -13.7m/s | 0.9°C | 67.7% | 0hPa | 0V | 08:22:00 | 00:00:00 | 00:00:00 | |
| LZ4TU-5 | 2026-09-04 00:45:51 | 44.47641 | 26.95989 | 168° | 18km/h | 3296m | -13.8m/s | 0.9°C | 66.2% | 0hPa | 0V | 08:22:00 | 00:00:00 | 00:00:00 | |
| LZ4TU-5 | 2026-09-04 00:45:47 | 44.47659 | 26.95985 | 164° | 18km/h | 3349m | -13.4m/s | 0.4°C | 68.7% | 0hPa | 0V | 08:22:00 | 00:00:00 | 00:00:00 | |
| LZ4TU-5 | 2026-09-04 00:45:42 | 44.47684 | 26.95979 | 169° | 22km/h | 3417m | -13.4m/s | -0.1°C | 70.9% | 0hPa | 0V | 08:22:00 | 00:00:00 | 00:00:00 | |
| LZ4TU-5 | 2026-09-04 00:45:37 | 44.47712 | 26.95973 | 166° | 22km/h | 3484m | -13.2m/s | -0.6°C | 69.4% | 0hPa | 0V | 08:22:00 | 00:00:00 | 00:00:00 | |
| LZ4TU-5 | 2026-09-04 00:45:32 | 44.47740 | 26.95966 | 174° | 24km/h | 3548m | -12.8m/s | -1.1°C | 70.7% | 0hPa | 0V | 08:22:00 | 00:00:00 | 00:00:00 | |
| LZ4TU-5 | 2026-09-04 00:45:29 | 44.47762 | 26.95960 | 173° | 18km/h | 3598m | -13.7m/s | -1.6°C | 73.5% | 0hPa | 0V | 08:22:00 | 00:00:00 | 00:00:00 | |
| LZ4TU-5 | 2026-09-04 00:45:24 | 44.47785 | 26.95949 | 163° | 18km/h | 3663m | -12.9m/s | -2.1°C | 71.8% | 0hPa | 0V | 08:22:00 | 00:00:00 | 00:00:00 | |
| LZ4TU-5 | 2026-09-04 00:45:18 | 44.47810 | 26.95935 | 154° | 24km/h | 3729m | -13.6m/s | -2.2°C | 60.3% | 0hPa | 0V | 08:22:00 | 00:00:00 | 00:00:00 | |
| LZ4TU-5 | 2026-09-04 00:45:14 | 44.47831 | 26.95921 | 151° | 26km/h | 3781m | -13.4m/s | -2.5°C | 48.2% | 0hPa | 0V | 08:22:00 | 00:00:00 | 00:00:00 | |
| LZ4TU-5 | 2026-09-04 00:45:10 | 44.47851 | 26.95905 | 145° | 22km/h | 3831m | -12.5m/s | -2.9°C | 55.2% | 0hPa | 0V | 08:22:00 | 00:00:00 | 00:00:00 | |
| LZ4TU-5 | 2026-09-04 00:45:05 | 44.47874 | 26.95885 | 156° | 24km/h | 3895m | -13.9m/s | -3.5°C | 77.7% | 0hPa | 0V | 08:23:00 | 00:00:00 | 00:00:00 | |
| LZ4TU-5 | 2026-09-04 00:45:00 | 44.47896 | 26.95867 | 151° | 22km/h | 3963m | -13.2m/s | -4.1°C | 84.2% | 0hPa | 0V | 08:23:00 | 00:00:00 | 00:00:00 | |
| LZ4TU-5 | 2026-09-04 00:44:57 | 44.47914 | 26.95848 | 141° | 24km/h | 4017m | -13.6m/s | -4.6°C | 91.7% | 0hPa | 0V | 08:23:00 | 00:00:00 | 00:00:00 | |
| LZ4TU-5 | 2026-09-04 00:44:52 | 44.47933 | 26.95830 | 145° | 20km/h | 4072m | -14.2m/s | -5.0°C | 93.3% | 0hPa | 0V | 08:23:00 | 00:00:00 | 00:00:00 | |
| LZ4TU-5 | 2026-09-04 00:44:47 | 44.47956 | 26.95806 | 151° | 24km/h | 4135m | -13.0m/s | -5.2°C | 84.9% | 0hPa | 0V | 08:23:00 | 00:00:00 | 00:00:00 | |
| LZ4TU-5 | 2026-09-04 00:44:42 | 44.47981 | 26.95782 | 148° | 24km/h | 4199m | -13.9m/s | -5.2°C | 73.5% | 0hPa | 0V | 08:23:00 | 00:00:00 | 00:00:00 | |
| LZ4TU-5 | 2026-09-04 00:44:38 | 44.48009 | 26.95757 | 144° | 27km/h | 4265m | -14.4m/s | -5.6°C | 82.5% | 0hPa | 0V | 08:23:00 | 00:00:00 | 00:00:00 | |
| LZ4TU-5 | 2026-09-04 00:44:33 | 44.48031 | 26.95738 | 146° | 24km/h | 4320m | -13.3m/s | -5.8°C | 71.3% | 0hPa | 0V | 08:23:00 | 00:00:00 | 00:00:00 | |
| LZ4TU-5 | 2026-09-04 00:44:28 | 44.48057 | 26.95713 | 146° | 26km/h | 4386m | -14.0m/s | -6.3°C | 67.1% | 0hPa | 0V | 08:23:00 | 00:00:00 | 00:00:00 | |
| LZ4TU-5 | 2026-09-04 00:44:24 | 44.48082 | 26.95686 | 146° | 27km/h | 4455m | -14.2m/s | -6.8°C | 63.0% | 0hPa | 0V | 08:23:00 | 00:00:00 | 00:00:00 | |
| LZ4TU-5 | 2026-09-04 00:44:18 | 44.48110 | 26.95664 | 147° | 26km/h | 4519m | -13.3m/s | -7.0°C | 64.1% | 0hPa | 0V | 08:23:00 | 00:00:00 | 00:00:00 | |
| LZ4TU-5 | 2026-09-04 00:44:13 | 44.48139 | 26.95645 | 155° | 27km/h | 4585m | -13.9m/s | -7.6°C | 70.7% | 0hPa | 0V | 00:00:00 | 00:00:00 | 00:00:00 | |
| LZ4TU-5 | 2026-09-04 00:44:08 | 44.48170 | 26.95630 | 161° | 26km/h | 4655m | -14.4m/s | -8.1°C | 71.9% | 0hPa | 0V | 00:00:00 | 00:00:00 | 00:00:00 | |
| LZ4TU-5 | 2026-09-04 00:44:03 | 44.48203 | 26.95617 | 167° | 27km/h | 4719m | -12.9m/s | -8.5°C | 63.2% | 0hPa | 0V | 00:00:00 | 00:00:00 | 00:00:00 | |
| LZ4TU-5 | 2026-09-04 00:43:59 | 44.48234 | 26.95601 | 164° | 24km/h | 4783m | -13.1m/s | -9.1°C | 64.9% | 0hPa | 0V | 00:00:00 | 00:00:00 | 00:00:00 | |
| LZ4TU-5 | 2026-09-04 00:43:54 | 44.48257 | 26.95587 | 154° | 27km/h | 4836m | -12.7m/s | -9.4°C | 67.6% | 0hPa | 0V | 00:00:00 | 00:00:00 | 00:00:00 | |
| LZ4TU-5 | 2026-09-04 00:43:49 | 44.48285 | 26.95565 | 149° | 26km/h | 4899m | -13.3m/s | -9.8°C | 88.5% | 0hPa | 0V | 00:00:00 | 00:00:00 | 00:00:00 | |
| LZ4TU-5 | 2026-09-04 00:43:46 | 44.48303 | 26.95549 | 154° | 20km/h | 4950m | -12.9m/s | -9.6°C | 56.7% | 0hPa | 0V | 00:00:00 | 00:00:00 | 00:00:00 | |
| LZ4TU-5 | 2026-09-04 00:43:41 | 44.48323 | 26.95532 | 147° | 15km/h | 5013m | -11.8m/s | -10.0°C | 58.6% | 0hPa | 0V | 00:00:00 | 00:00:00 | 00:00:00 | |
| LZ4TU-5 | 2026-09-04 00:41:58 | 44.48440 | 26.95058 | 82° | 22km/h | 6215m | -11.0m/s | -17.7°C | 69.9% | 0hPa | 0V | 00:00:00 | 00:00:00 | 00:00:00 | |
| LZ4TU-5 | 2026-09-04 00:41:53 | 44.48436 | 26.95019 | 80° | 24km/h | 6272m | -12.0m/s | -18.0°C | 66.8% | 0hPa | 0V | 00:00:00 | 00:00:00 | 00:00:00 | |
| LZ4TU-5 | 2026-09-04 00:39:53 | 44.48259 | 26.94247 | 82° | 15km/h | 7368m | -7.4m/s | -26.0°C | 60.5% | 0hPa | 0V | 00:00:00 | 00:00:00 | 00:00:00 | |
| LZ4TU-5 | 2026-09-04 00:39:49 | 44.48257 | 26.94217 | 81° | 16km/h | 7401m | -8.3m/s | -26.2°C | 59.7% | 0hPa | 0V | 00:00:00 | 00:00:00 | 00:00:00 | |
| LZ4TU-5 | 2026-09-04 00:38:06 | 44.48317 | 26.93410 | 110° | 33km/h | 8387m | -9.5m/s | -34.6°C | 75.2% | 0hPa | 0V | 00:00:00 | 00:00:00 | 00:00:00 | |
| LZ4TU-5 | 2026-09-04 00:38:02 | 44.48326 | 26.93365 | 105° | 35km/h | 8429m | -10.6m/s | -35.0°C | 76.2% | 0hPa | 0V | 00:00:00 | 00:00:00 | 00:00:00 | |
| LZ4TU-5 | 2026-09-04 00:36:14 | 44.48414 | 26.92114 | 102° | 27km/h | 9332m | -8.6m/s | -41.7°C | 30.9% | 0hPa | 0V | 00:00:00 | 00:00:00 | 00:00:00 | |
| LZ4TU-5 | 2026-09-04 00:36:09 | 44.48421 | 26.92065 | 106° | 26km/h | 9373m | -8.4m/s | -42.0°C | 32.5% | 0hPa | 0V | 00:00:00 | 00:00:00 | 00:00:00 | |
| LZ4TU-5 | 2026-09-04 00:34:21 | 44.48660 | 26.90998 | 119° | 40km/h | 10153m | -10.1m/s | -49.0°C | 60.0% | 0hPa | 0V | 00:00:00 | 00:00:00 | 00:00:00 | |
| LZ4TU-5 | 2026-09-04 00:34:16 | 44.48681 | 26.90932 | 112° | 40km/h | 10183m | -7.3m/s | -49.3°C | 62.6% | 0hPa | 0V | 00:00:00 | 00:00:00 | 00:00:00 | |
| LZ4TU-5 | 2026-09-04 00:32:34 | 44.49088 | 26.89351 | 96° | 55km/h | 10901m | -8.9m/s | -55.3°C | 47.3% | 0hPa | 0V | 00:00:00 | 00:00:00 | 00:00:00 | |
| LZ4TU-5 | 2026-09-04 00:32:29 | 44.49090 | 26.89275 | 89° | 51km/h | 10932m | -6.5m/s | -55.3°C | 45.8% | 0hPa | 0V | 00:00:00 | 00:00:00 | 00:00:00 | |
| LZ4TU-5 | 2026-09-04 00:30:45 | 44.48971 | 26.86965 | 96° | 66km/h | 11594m | -8.7m/s | -51.9°C | 5.7% | 0hPa | 0V | 00:00:00 | 00:00:00 | 00:00:00 | |
| LZ4TU-5 | 2026-09-04 00:30:40 | 44.48975 | 26.86856 | 91° | 60km/h | 11631m | -8.9m/s | -51.5°C | 4.4% | 0hPa | 0V | 00:00:00 | 00:00:00 | 00:00:00 | |
| LZ4TU-5 | 2026-09-04 00:28:50 | 44.48880 | 26.84714 | 79° | 46km/h | 12275m | -7.5m/s | -47.6°C | 2.0% | 0hPa | 0V | 00:00:00 | 00:00:00 | 00:00:00 | |
| LZ4TU-5 | 2026-09-04 00:28:46 | 44.48871 | 26.84654 | 81° | 40km/h | 12297m | -6.5m/s | -47.6°C | 2.0% | 0hPa | 0V | 00:00:00 | 00:00:00 | 00:00:00 | |
| LZ4TU-5 | 2026-09-04 00:27:02 | 44.48395 | 26.82796 | 82° | 75km/h | 12887m | -4.9m/s | -49.4°C | 1.4% | 0hPa | 0V | 00:00:00 | 00:00:00 | 00:00:00 | |
| LZ4TU-5 | 2026-09-04 00:26:58 | 44.48381 | 26.82671 | 83° | 68km/h | 12913m | -5.0m/s | -49.2°C | 1.3% | 0hPa | 0V | 00:00:00 | 00:00:00 | 00:00:00 | |
| LZ4TU-5 | 2026-09-04 00:25:14 | 44.48282 | 26.80695 | 65° | 55km/h | 13482m | -5.4m/s | -49.5°C | 1.3% | 0hPa | 0V | 00:00:00 | 00:00:00 | 00:00:00 | |
| LZ4TU-5 | 2026-09-04 00:25:08 | 44.48253 | 26.80610 | 68° | 53km/h | 13511m | -5.7m/s | -49.8°C | 1.3% | 0hPa | 0V | 00:00:00 | 00:00:00 | 00:00:00 | |
| LZ4TU-5 | 2026-09-04 00:23:26 | 44.47633 | 26.78410 | 70° | 58km/h | 14097m | -6.0m/s | -52.4°C | 1.5% | 0hPa | 0V | 00:00:00 | 00:00:00 | 00:00:00 | |
| LZ4TU-5 | 2026-09-04 00:23:23 | 44.47611 | 26.78332 | 69° | 62km/h | 14119m | -5.1m/s | -52.6°C | 1.5% | 0hPa | 0V | 00:00:00 | 00:00:00 | 00:00:00 | |
| LZ4TU-5 | 2026-09-04 00:21:36 | 44.47153 | 26.75665 | 86° | 71km/h | 14639m | -3.6m/s | -55.2°C | 1.6% | 0hPa | 0V | 00:00:00 | 00:00:00 | 00:00:00 | |
| LZ4TU-5 | 2026-09-04 00:21:31 | 44.47145 | 26.75536 | 88° | 77km/h | 14660m | -3.8m/s | -55.3°C | 1.5% | 0hPa | 0V | 00:00:00 | 00:00:00 | 00:00:00 | |
| LZ4TU-5 | 2026-09-04 00:19:40 | 44.47212 | 26.73484 | 76° | 55km/h | 15274m | -7.2m/s | -55.3°C | 1.2% | 0hPa | 0V | 00:00:00 | 00:00:00 | 00:00:00 | |
| LZ4TU-5 | 2026-09-04 00:19:35 | 44.47198 | 26.73404 | 77° | 60km/h | 15301m | -7.3m/s | -55.3°C | 1.1% | 0hPa | 0V | 00:00:00 | 00:00:00 | 00:00:00 | |
| LZ4TU-5 | 2026-09-04 00:17:52 | 44.47131 | 26.71231 | 104° | 57km/h | 15945m | -4.9m/s | -55.2°C | 1.0% | 0hPa | 0V | 00:00:00 | 00:00:00 | 00:00:00 | |
| LZ4TU-5 | 2026-09-04 00:17:48 | 44.47142 | 26.71154 | 100° | 55km/h | 15966m | -4.7m/s | -55.1°C | 0.9% | 0hPa | 0V | 00:00:00 | 00:00:00 | 00:00:00 | |
| LZ4TU-5 | 2026-09-04 00:16:03 | 44.47270 | 26.69421 | 92° | 33km/h | 16406m | -2.8m/s | -54.4°C | 1.0% | 0hPa | 0V | 00:00:00 | 00:00:00 | 00:00:00 | |
| LZ4TU-5 | 2026-09-04 00:15:58 | 44.47272 | 26.69367 | 90° | 27km/h | 16422m | -2.4m/s | -54.4°C | 1.0% | 0hPa | 0V | 00:00:00 | 00:00:00 | 00:00:00 | |
| LZ4TU-5 | 2026-09-04 00:14:13 | 44.47198 | 26.68099 | 80° | 37km/h | 16638m | -1.1m/s | -55.0°C | 1.1% | 0hPa | 0V | 00:00:00 | 00:00:00 | 00:00:00 | |
| LZ4TU-5 | 2026-09-04 00:14:09 | 44.47186 | 26.68040 | 71° | 35km/h | 16642m | -0.7m/s | -55.0°C | 1.1% | 0hPa | 0V | 00:00:00 | 00:00:00 | 00:00:00 | |
| LZ4TU-5 | 2026-09-04 00:12:25 | 44.47045 | 26.66704 | 90° | 35km/h | 16467m | 3.5m/s | -54.3°C | 0.8% | 0hPa | 0V | 00:00:00 | 00:00:00 | 00:00:00 | |
| LZ4TU-5 | 2026-09-04 00:12:19 | 44.47045 | 26.66641 | 93° | 31km/h | 16451m | 4.3m/s | -54.2°C | 0.9% | 0hPa | 0V | 00:00:00 | 00:00:00 | 00:00:00 | |
| LZ4TU-5 | 2026-09-04 00:10:30 | 44.47170 | 26.64965 | 102° | 55km/h | 16119m | 2.7m/s | -55.2°C | 1.0% | 0hPa | 0V | 00:00:00 | 00:00:00 | 00:00:00 | |
| LZ4TU-5 | 2026-09-04 00:10:26 | 44.47175 | 26.64874 | 91° | 51km/h | 16104m | 2.7m/s | -55.3°C | 1.0% | 0hPa | 0V | 00:00:00 | 00:00:00 | 00:00:00 | |
| LZ4TU-5 | 2026-09-04 00:08:30 | 44.47279 | 26.62459 | 94° | 57km/h | 15698m | 3.2m/s | -53.9°C | 1.1% | 0hPa | 0V | 00:00:00 | 00:00:00 | 00:00:00 | |
| LZ4TU-5 | 2026-09-04 00:08:26 | 44.47281 | 26.62377 | 94° | 58km/h | 15684m | 3.0m/s | -54.0°C | 1.1% | 0hPa | 0V | 00:00:00 | 00:00:00 | 00:00:00 | |
| LZ4TU-5 | 2026-09-04 00:06:43 | 44.47029 | 26.60180 | 73° | 53km/h | 15369m | 3.1m/s | -55.8°C | 1.4% | 0hPa | 0V | 00:00:00 | 00:00:00 | 00:00:00 | |
| LZ4TU-5 | 2026-09-04 00:06:37 | 44.47009 | 26.60090 | 74° | 53km/h | 15354m | 2.7m/s | -55.8°C | 1.5% | 0hPa | 0V | 00:00:00 | 00:00:00 | 00:00:00 | |
| LZ4TU-5 | 2026-09-04 00:03:06 | 44.47259 | 26.56412 | 93° | 69km/h | 14622m | 1.7m/s | -54.7°C | 1.6% | 0hPa | 0V | 00:00:00 | 00:00:00 | 00:00:00 | |
| LZ4TU-5 | 2026-09-04 00:01:21 | 44.47009 | 26.53510 | 77° | 77km/h | 14312m | 3.0m/s | -53.8°C | 1.8% | 0hPa | 0V | 00:00:00 | 00:00:00 | 00:00:00 | |
| LZ4TU-5 | 2026-09-04 00:01:18 | 44.46992 | 26.53409 | 77° | 73km/h | 14302m | 2.1m/s | -53.8°C | 1.8% | 0hPa | 0V | 00:00:00 | 00:00:00 | 00:00:00 | |
| LZ4TU-5 | 2026-09-03 23:59:36 | 44.46573 | 26.51236 | 76° | 64km/h | 14022m | 3.4m/s | -53.4°C | 2.0% | 0hPa | 0V | 00:00:00 | 00:00:00 | 00:00:00 | |
| LZ4TU-5 | 2026-09-03 23:59:32 | 44.46551 | 26.51143 | 70° | 75km/h | 14010m | 4.2m/s | -53.4°C | 2.1% | 0hPa | 0V | 00:00:00 | 00:00:00 | 00:00:00 | |
| LZ4TU-5 | 2026-09-03 23:57:52 | 44.45744 | 26.49242 | 58° | 53km/h | 13639m | 0.8m/s | -50.7°C | 1.9% | 0hPa | 0V | 00:00:00 | 00:00:00 | 00:00:00 | |
| LZ4TU-5 | 2026-09-03 23:57:47 | 44.45709 | 26.49169 | 56° | 47km/h | 13615m | 6.6m/s | -50.5°C | 1.9% | 0hPa | 0V | 00:00:00 | 00:00:00 | 00:00:00 | |
| LZ4TU-5 | 2026-09-03 23:55:56 | 44.45553 | 26.47404 | 99° | 58km/h | 13092m | 3.2m/s | -48.6°C | 2.0% | 0hPa | 0V | 00:00:00 | 00:00:00 | 00:00:00 | |
| LZ4TU-5 | 2026-09-03 23:55:51 | 44.45564 | 26.47296 | 99° | 64km/h | 13069m | 6.0m/s | -48.7°C | 2.0% | 0hPa | 0V | 00:00:00 | 00:00:00 | 00:00:00 | |
| LZ4TU-5 | 2026-09-03 23:54:11 | 44.45387 | 26.44868 | 79° | 68km/h | 12676m | 2.3m/s | -49.0°C | 2.5% | 0hPa | 0V | 00:00:00 | 00:00:00 | 00:00:00 | |
| LZ4TU-5 | 2026-09-03 23:54:06 | 44.45375 | 26.44755 | 85° | 64km/h | 12661m | 3.5m/s | -49.2°C | 2.8% | 0hPa | 0V | 00:00:00 | 00:00:00 | 00:00:00 | |
| LZ4TU-5 | 2026-09-03 23:52:25 | 44.45415 | 26.42841 | 93° | 57km/h | 12345m | 3.4m/s | -50.2°C | 4.3% | 0hPa | 0V | 00:00:00 | 00:00:00 | 00:00:00 | |
| LZ4TU-5 | 2026-09-03 23:52:20 | 44.45420 | 26.42742 | 99° | 58km/h | 12329m | 3.1m/s | -50.3°C | 4.5% | 0hPa | 0V | 00:00:00 | 00:00:00 | 00:00:00 | |
| LZ4TU-5 | 2026-09-03 23:50:26 | 44.45389 | 26.40499 | 79° | 49km/h | 11945m | 2.8m/s | -49.8°C | 5.4% | 0hPa | 0V | 00:00:00 | 00:00:00 | 00:00:00 | |
| LZ4TU-5 | 2026-09-03 23:50:21 | 44.45375 | 26.40416 | 76° | 49km/h | 11927m | 4.1m/s | -49.7°C | 5.2% | 0hPa | 0V | 00:00:00 | 00:00:00 | 00:00:00 | |
| LZ4TU-5 | 2026-09-03 23:48:38 | 44.45353 | 26.38750 | 89° | 55km/h | 11582m | 2.9m/s | -49.7°C | 7.1% | 0hPa | 0V | 00:00:00 | 00:00:00 | 00:00:00 | |
| LZ4TU-5 | 2026-09-03 23:48:33 | 44.45353 | 26.38651 | 92° | 57km/h | 11567m | 3.3m/s | -50.0°C | 7.5% | 0hPa | 0V | 00:00:00 | 00:00:00 | 00:00:00 | |
| LZ4TU-5 | 2026-09-03 23:46:54 | 44.45382 | 26.36062 | 85° | 78km/h | 11280m | 2.8m/s | -54.3°C | 30.3% | 0hPa | 0V | 00:00:00 | 00:00:00 | 00:00:00 | |
| LZ4TU-5 | 2026-09-03 23:46:50 | 44.45368 | 26.35925 | 83° | 77km/h | 11267m | 2.7m/s | -54.4°C | 31.9% | 0hPa | 0V | 00:00:00 | 00:00:00 | 00:00:00 | |
| LZ4TU-5 | 2026-09-03 23:45:08 | 44.45306 | 26.33791 | 103° | 58km/h | 10903m | 2.5m/s | -55.4°C | 61.3% | 0hPa | 0V | 00:00:00 | 00:00:00 | 00:00:00 | |
| LZ4TU-5 | 2026-09-03 23:45:04 | 44.45317 | 26.33710 | 103° | 57km/h | 10890m | 3.7m/s | -55.3°C | 60.5% | 0hPa | 0V | 00:00:00 | 00:00:00 | 00:00:00 | |
| LZ4TU-5 | 2026-09-03 23:43:21 | 44.45756 | 26.31868 | 114° | 55km/h | 10580m | 4.6m/s | -52.7°C | 56.6% | 0hPa | 0V | 00:00:00 | 00:00:00 | 00:00:00 | |
| LZ4TU-5 | 2026-09-03 23:43:16 | 44.45781 | 26.31777 | 113° | 53km/h | 10566m | 1.7m/s | -52.5°C | 56.8% | 0hPa | 0V | 00:00:00 | 00:00:00 | 00:00:00 | |
| LZ4TU-5 | 2026-09-03 23:41:42 | 44.46225 | 26.30182 | 110° | 53km/h | 10280m | 5.8m/s | -49.9°C | 69.4% | 0hPa | 0V | 00:00:00 | 00:00:00 | 00:00:00 | |
| LZ4TU-5 | 2026-09-03 23:41:37 | 44.46247 | 26.30099 | 112° | 46km/h | 10257m | 5.6m/s | -49.7°C | 0% | 0hPa | 0V | 00:00:00 | 00:00:00 | 00:00:00 | |
| LZ4TU-5 | 2026-09-03 23:40:12 | 44.46419 | 26.28948 | 104° | 20km/h | 9800m | 6.8m/s | -45.8°C | 70.0% | 0hPa | 0V | 00:00:00 | 00:00:00 | 00:00:00 | |
| LZ4TU-5 | 2026-09-03 23:40:07 | 44.46421 | 26.28907 | 86° | 29km/h | 9766m | 7.7m/s | -45.5°C | 68.7% | 0hPa | 0V | 00:00:00 | 00:00:00 | 00:00:00 | |
| LZ4TU-5 | 2026-09-03 23:38:40 | 44.46058 | 26.28032 | 42° | 31km/h | 9204m | 4.5m/s | -40.6°C | 66.3% | 0hPa | 0V | 00:00:00 | 00:00:00 | 00:00:00 | |
| LZ4TU-5 | 2026-09-03 23:37:08 | 44.45777 | 26.27084 | 67° | 29km/h | 8693m | 6.6m/s | -36.1°C | 72.6% | 0hPa | 0V | 00:00:00 | 00:00:00 | 00:00:00 | |
| LZ4TU-5 | 2026-09-03 23:37:05 | 44.45764 | 26.27044 | 70° | 35km/h | 8666m | 7.4m/s | -35.9°C | 71.7% | 0hPa | 0V | 00:00:00 | 00:00:00 | 00:00:00 | |
| LZ4TU-5 | 2026-09-03 23:35:43 | 44.45451 | 26.26321 | 63° | 37km/h | 8212m | 4.3m/s | -31.9°C | 74.3% | 0hPa | 0V | 00:00:00 | 00:00:00 | 00:00:00 | |
| LZ4TU-5 | 2026-09-03 23:35:39 | 44.45441 | 26.26276 | 83° | 31km/h | 8195m | 5.7m/s | -31.7°C | 75.4% | 0hPa | 0V | 00:00:00 | 00:00:00 | 00:00:00 | |
| LZ4TU-5 | 2026-09-03 23:34:24 | 44.45190 | 26.25723 | 41° | 24km/h | 7807m | 6.6m/s | -28.6°C | 79.5% | 0hPa | 0V | 00:00:00 | 00:00:00 | 00:00:00 | |
| LZ4TU-5 | 2026-09-03 23:34:18 | 44.45176 | 26.25694 | 79° | 22km/h | 7780m | 6.4m/s | -28.4°C | 80.9% | 0hPa | 0V | 00:00:00 | 00:00:00 | 00:00:00 | |
| LZ4TU-5 | 2026-09-03 23:33:02 | 44.44961 | 26.25158 | 41° | 26km/h | 7384m | 3.2m/s | -25.2°C | 82.8% | 0hPa | 0V | 00:00:00 | 00:00:00 | 00:00:00 | |
| LZ4TU-5 | 2026-09-03 23:32:59 | 44.44945 | 26.25133 | 65° | 20km/h | 7362m | 6.0m/s | -25.0°C | 82.7% | 0hPa | 0V | 00:00:00 | 00:00:00 | 00:00:00 | |
| LZ4TU-5 | 2026-09-03 23:31:38 | 44.44810 | 26.24606 | 99° | 22km/h | 7004m | 3.3m/s | -22.1°C | 82.2% | 0hPa | 0V | 00:00:00 | 00:00:00 | 00:00:00 | |
| LZ4TU-5 | 2026-09-03 23:31:34 | 44.44808 | 26.24568 | 81° | 26km/h | 6990m | 2.7m/s | -22.1°C | 84.1% | 0hPa | 0V | 00:00:00 | 00:00:00 | 00:00:00 | |
| LZ4TU-5 | 2026-09-03 23:30:18 | 44.44615 | 26.24162 | 10° | 13km/h | 6780m | 5.2m/s | -20.6°C | 85.1% | 0hPa | 0V | 00:00:00 | 00:00:00 | 00:00:00 | |
| LZ4TU-5 | 2026-09-03 23:30:12 | 44.44604 | 26.24151 | 67° | 15km/h | 6756m | 4.8m/s | -20.4°C | 85.2% | 0hPa | 0V | 00:00:00 | 00:00:00 | 00:00:00 | |
| LZ4TU-5 | 2026-09-03 23:28:57 | 44.44420 | 26.23869 | 55° | 13km/h | 6472m | 3.5m/s | -18.3°C | 86.8% | 0hPa | 0V | 00:00:00 | 00:00:00 | 00:00:00 | |
| LZ4TU-5 | 2026-09-03 23:28:53 | 44.44414 | 26.23854 | 73° | 15km/h | 6461m | 1.1m/s | -18.3°C | 0% | 0hPa | 0V | 00:00:00 | 00:00:00 | 00:00:00 | |
| LZ4TU-5 | 2026-09-03 23:27:38 | 44.44223 | 26.23566 | 25° | 13km/h | 6151m | 4.6m/s | -16.0°C | 90.6% | 0hPa | 0V | 00:00:00 | 00:00:00 | 00:00:00 | |
| LZ4TU-5 | 2026-09-03 23:27:34 | 44.44208 | 26.23548 | 46° | 16km/h | 6129m | 5.8m/s | -15.9°C | 89.5% | 0hPa | 0V | 00:00:00 | 00:00:00 | 00:00:00 | |
| LZ4TU-5 | 2026-09-03 23:26:24 | 44.44095 | 26.23125 | 85° | 16km/h | 5804m | 5.4m/s | -14.2°C | 91.5% | 0hPa | 0V | 00:00:00 | 00:00:00 | 00:00:00 | |
| LZ4TU-5 | 2026-09-03 23:26:20 | 44.44089 | 26.23112 | 33° | 9km/h | 5788m | 3.4m/s | -14.1°C | 90.5% | 0hPa | 0V | 00:00:00 | 00:00:00 | 00:00:00 | |
| LZ4TU-5 | 2026-09-03 23:25:10 | 44.44112 | 26.22895 | 183° | 9km/h | 5587m | 2.6m/s | -12.5°C | 92.2% | 0hPa | 0V | 00:00:00 | 00:00:00 | 00:00:00 | |
| LZ4TU-5 | 2026-09-03 23:25:04 | 44.44115 | 26.22892 | 94° | 4km/h | 5574m | 3.7m/s | -12.5°C | 90.5% | 0hPa | 0V | 00:00:00 | 00:00:00 | 00:00:00 | |
| LZ4TU-5 | 2026-09-03 23:24:01 | 44.44171 | 26.22884 | 171° | 7km/h | 5255m | 2.9m/s | -10.6°C | 91.5% | 0hPa | 0V | 00:00:00 | 00:00:00 | 00:00:00 | |
| LZ4TU-5 | 2026-09-03 23:23:55 | 44.44181 | 26.22882 | 187° | 9km/h | 5242m | 2.8m/s | -10.5°C | 91.8% | 0hPa | 0V | 00:00:00 | 00:00:00 | 00:00:00 | |
| LZ4TU-5 | 2026-09-03 23:22:51 | 44.44297 | 26.23025 | 243° | 9km/h | 5058m | 3.1m/s | -9.5°C | 93.7% | 0hPa | 0V | 00:00:00 | 00:00:00 | 00:00:00 | |
| LZ4TU-5 | 2026-09-03 23:22:47 | 44.44300 | 26.23044 | 273° | 11km/h | 5040m | 2.7m/s | -9.4°C | 94.1% | 0hPa | 0V | 00:00:00 | 00:00:00 | 00:00:00 | |
| LZ4TU-5 | 2026-09-03 23:21:44 | 44.44398 | 26.23280 | 206° | 5km/h | 4843m | 3.1m/s | -8.2°C | 92.3% | 0hPa | 0V | 00:00:00 | 00:00:00 | 00:00:00 | |
| LZ4TU-5 | 2026-09-03 23:21:39 | 44.44402 | 26.23292 | 262° | 11km/h | 4826m | 3.0m/s | -8.3°C | 90.8% | 0hPa | 0V | 00:00:00 | 00:00:00 | 00:00:00 | |
| LZ4TU-5 | 2026-09-03 23:20:35 | 44.44638 | 26.23278 | 162° | 27km/h | 4599m | 1.7m/s | -7.0°C | 89.4% | 0hPa | 0V | 00:00:00 | 00:00:00 | 00:00:00 | |
| LZ4TU-5 | 2026-09-03 23:20:30 | 44.44666 | 26.23268 | 167° | 20km/h | 4589m | 1.5m/s | -6.9°C | 89.3% | 0hPa | 0V | 00:00:00 | 00:00:00 | 00:00:00 | |
| LZ4TU-5 | 2026-09-03 23:20:26 | 44.44689 | 26.23258 | 169° | 20km/h | 4581m | 2.1m/s | -6.9°C | 0% | 0hPa | 0V | 00:00:00 | 00:00:00 | 00:00:00 | |
| LZ4TU-5 | 2026-09-03 23:19:24 | 44.45068 | 26.23140 | 175° | 31km/h | 4453m | 2.9m/s | -6.4°C | 91.7% | 0hPa | 0V | 00:00:00 | 00:00:00 | 00:00:00 | |
| LZ4TU-5 | 2026-09-03 23:19:18 | 44.45099 | 26.23139 | 169° | 20km/h | 4439m | 2.5m/s | -6.4°C | 91.6% | 0hPa | 0V | 00:00:00 | 00:00:00 | 00:00:00 | |
| LZ4TU-5 | 2026-09-03 23:18:16 | 44.45477 | 26.23064 | 154° | 24km/h | 4282m | 2.5m/s | -5.6°C | 93.3% | 0hPa | 0V | 00:00:00 | 00:00:00 | 00:00:00 | |
| LZ4TU-5 | 2026-09-03 23:18:12 | 44.45506 | 26.23053 | 188° | 26km/h | 4267m | 3.4m/s | -5.5°C | 93.7% | 0hPa | 0V | 00:00:00 | 00:00:00 | 00:00:00 | |
| LZ4TU-5 | 2026-09-03 23:17:08 | 44.45890 | 26.23050 | 171° | 22km/h | 4071m | 3.1m/s | -4.4°C | 95.4% | 0hPa | 0V | 00:00:00 | 00:00:00 | 00:00:00 | |
| LZ4TU-5 | 2026-09-03 23:17:04 | 44.45918 | 26.23046 | 182° | 29km/h | 4058m | 3.4m/s | -4.4°C | 94.7% | 0hPa | 0V | 00:00:00 | 00:00:00 | 00:00:00 | |
| LZ4TU-5 | 2026-09-03 23:16:07 | 44.46339 | 26.23029 | 189° | 35km/h | 3887m | 2.4m/s | -3.5°C | 0% | 0hPa | 0V | 00:00:00 | 00:00:00 | 00:00:00 | |
| LZ4TU-5 | 2026-09-03 23:16:02 | 44.46368 | 26.23030 | 169° | 26km/h | 3878m | 2.0m/s | -3.5°C | 0% | 0hPa | 0V | 00:00:00 | 00:00:00 | 00:00:00 | |
| LZ4TU-5 | 2026-09-03 23:15:05 | 44.46803 | 26.22939 | 175° | 37km/h | 3730m | 2.5m/s | -2.6°C | 0% | 0hPa | 0V | 00:00:00 | 00:00:00 | 00:00:00 | |
| LZ4TU-5 | 2026-09-03 23:15:01 | 44.46844 | 26.22932 | 165° | 33km/h | 3718m | 2.6m/s | -2.5°C | 0% | 0hPa | 0V | 00:00:00 | 00:00:00 | 00:00:00 | |
| LZ4TU-5 | 2026-09-03 23:14:02 | 44.47244 | 26.22814 | 152° | 16km/h | 3561m | 2.5m/s | -1.6°C | 0% | 0hPa | 0V | 00:00:00 | 00:00:00 | 00:00:00 | |
| LZ4TU-5 | 2026-09-03 23:13:58 | 44.47264 | 26.22803 | 170° | 24km/h | 3549m | 3.2m/s | -1.6°C | 0% | 0hPa | 0V | 00:00:00 | 00:00:00 | 00:00:00 | |
| LZ4TU-5 | 2026-09-03 23:13:01 | 44.47565 | 26.22745 | 179° | 22km/h | 3411m | 2.6m/s | -1.3°C | 0% | 0hPa | 0V | 00:00:00 | 00:00:00 | 00:00:00 | |
| LZ4TU-5 | 2026-09-03 23:12:56 | 44.47582 | 26.22742 | 164° | 15km/h | 3402m | 2.5m/s | -1.3°C | 0% | 0hPa | 0V | 00:00:00 | 00:00:00 | 00:00:00 | |
| LZ4TU-5 | 2026-09-03 23:11:58 | 44.47859 | 26.22749 | 152° | 15km/h | 3214m | 3.2m/s | -0.0°C | 0% | 0hPa | 0V | 00:00:00 | 00:00:00 | 00:00:00 | |
| LZ4TU-5 | 2026-09-03 23:11:54 | 44.47877 | 26.22738 | 168° | 22km/h | 3197m | 4.6m/s | 0.2°C | 0% | 0hPa | 0V | 00:00:00 | 00:00:00 | 00:00:00 | |
| LZ4TU-5 | 2026-09-03 23:10:57 | 44.48253 | 26.22586 | 156° | 29km/h | 2927m | 5.9m/s | 2.6°C | 0% | 0hPa | 0V | 00:00:00 | 00:00:00 | 00:00:00 | |
| LZ4TU-5 | 2026-09-03 23:10:52 | 44.48294 | 26.22568 | 168° | 33km/h | 2897m | 5.8m/s | 2.9°C | 0% | 0hPa | 0V | 00:00:00 | 00:00:00 | 00:00:00 | |
| LZ4TU-5 | 2026-09-03 23:09:50 | 44.48688 | 26.22310 | 134° | 24km/h | 2599m | 4.3m/s | 5.1°C | 0% | 0hPa | 0V | 00:00:00 | 00:00:00 | 00:00:00 | |
| LZ4TU-5 | 2026-09-03 23:08:52 | 44.48999 | 26.22082 | 168° | 11km/h | 2348m | 4.8m/s | 6.4°C | 0% | 0hPa | 0V | 00:00:00 | 00:00:00 | 00:00:00 | |
| LZ4TU-5 | 2026-09-03 23:08:48 | 44.49014 | 26.22078 | 163° | 16km/h | 2326m | 6.1m/s | 6.5°C | 0% | 0hPa | 0V | 00:00:00 | 00:00:00 | 00:00:00 | |
| LZ4TU-5 | 2026-09-03 23:07:50 | 44.49121 | 26.21959 | 160° | 16km/h | 2046m | 3.7m/s | 8.9°C | 0% | 0hPa | 0V | 00:00:00 | 00:00:00 | 00:00:00 | |
| LZ4TU-5 | 2026-09-03 23:07:46 | 44.49134 | 26.21950 | 145° | 7km/h | 2029m | 3.9m/s | 9.1°C | 0% | 0hPa | 0V | 00:00:00 | 00:00:00 | 00:00:00 | |
| LZ4TU-5 | 2026-09-03 23:06:48 | 44.49184 | 26.21898 | 194° | 4km/h | 1780m | 3.1m/s | 11.4°C | 0% | 0hPa | 0V | 00:00:00 | 00:00:00 | 00:00:00 | |
| LZ4TU-5 | 2026-09-03 23:06:44 | 44.49192 | 26.21887 | 124° | 16km/h | 1764m | 5.1m/s | 11.5°C | 0% | 0hPa | 0V | 00:00:00 | 00:00:00 | 00:00:00 | |
| LZ4TU-5 | 2026-09-03 23:05:46 | 44.49236 | 26.21799 | 14° | 7km/h | 1505m | 5.1m/s | 13.6°C | 0% | 0hPa | 0V | 00:00:00 | 00:00:00 | 00:00:00 | |
| LZ4TU-5 | 2026-09-03 23:05:42 | 44.49234 | 26.21801 | 256° | 5km/h | 1487m | 5.6m/s | 0°C | 0% | 0hPa | 0V | 00:00:00 | 00:00:00 | 00:00:00 | |
| LZ4TU-5 | 2026-09-03 23:04:47 | 44.49316 | 26.21743 | 130° | 5km/h | 1229m | 5.6m/s | 0°C | 0% | 0hPa | 0V | 00:00:00 | 00:00:00 | 00:00:00 | |
| LZ4TU-5 | 2026-09-03 23:04:43 | 44.49322 | 26.21746 | 205° | 9km/h | 1210m | 5.4m/s | 0°C | 0% | 0hPa | 0V | 00:00:00 | 00:00:00 | 00:00:00 | |
| LZ4TU-5 | 2026-09-03 23:04:37 | 44.49343 | 26.21748 | 152° | 16km/h | 1181m | 4.5m/s | 0°C | 0% | 0hPa | 0V | 00:00:00 | 00:00:00 | 00:00:00 | |
| LZ4TU-5 | 2026-09-03 23:04:30 | 44.49352 | 26.21729 | 199° | 7km/h | 1154m | 3.8m/s | 0°C | 0% | 0hPa | 0V | 00:00:00 | 00:00:00 | 00:00:00 | |
| LZ4TU-5 | 2026-09-03 23:04:25 | 44.49370 | 26.21720 | 127° | 18km/h | 1135m | 3.9m/s | 0°C | 0% | 0hPa | 0V | 00:00:00 | 00:00:00 | 00:00:00 | |
| LZ4TU-5 | 2026-09-03 23:04:21 | 44.49377 | 26.21705 | 152° | 7km/h | 1118m | 3.8m/s | 0°C | 0% | 0hPa | 0V | 00:00:00 | 00:00:00 | 00:00:00 | |
| LZ4TU-5 | 2026-09-03 23:04:15 | 44.49390 | 26.21688 | 128° | 20km/h | 1089m | 4.8m/s | 0°C | 0% | 0hPa | 0V | 00:00:00 | 00:00:00 | 00:00:00 |